sensor_id;sensor_type;location;lat;lon;timestamp;P1;durP1;ratioP1;P2;durP2;ratioP2
9042;SDS011;4556;49.150;8.808;2022-08-01T00:01:37;4.13;;;1.83;;
9042;SDS011;4556;49.150;8.808;2022-08-01T00:04:04;2.20;;;2.00;;
9042;SDS011;4556;49.150;8.808;2022-08-01T00:06:31;2.70;;;2.20;;
9042;SDS011;4556;49.150;8.808;2022-08-01T00:08:58;2.43;;;1.87;;
9042;SDS011;4556;49.150;8.808;2022-08-01T00:11:25;2.63;;;1.80;;
9042;SDS011;4556;49.150;8.808;2022-08-01T00:13:52;2.70;;;2.00;;
9042;SDS011;4556;49.150;8.808;2022-08-01T00:16:20;5.00;;;1.97;;
9042;SDS011;4556;49.150;8.808;2022-08-01T00:18:52;2.30;;;1.60;;
9042;SDS011;4556;49.150;8.808;2022-08-01T00:21:20;3.63;;;2.10;;
9042;SDS011;4556;49.150;8.808;2022-08-01T00:23:47;3.17;;;1.70;;
9042;SDS011;4556;49.150;8.808;2022-08-01T00:26:14;3.23;;;2.20;;
9042;SDS011;4556;49.150;8.808;2022-08-01T00:28:42;5.87;;;2.20;;
9042;SDS011;4556;49.150;8.808;2022-08-01T00:31:09;2.67;;;2.00;;
9042;SDS011;4556;49.150;8.808;2022-08-01T00:33:36;2.80;;;2.00;;
9042;SDS011;4556;49.150;8.808;2022-08-01T00:36:05;2.20;;;1.90;;
9042;SDS011;4556;49.150;8.808;2022-08-01T00:38:32;2.33;;;1.90;;
9042;SDS011;4556;49.150;8.808;2022-08-01T00:41:00;7.17;;;2.13;;
9042;SDS011;4556;49.150;8.808;2022-08-01T00:43:27;1.93;;;1.73;;
9042;SDS011;4556;49.150;8.808;2022-08-01T00:45:54;2.73;;;2.00;;
9042;SDS011;4556;49.150;8.808;2022-08-01T00:48:21;2.90;;;1.83;;
9042;SDS011;4556;49.150;8.808;2022-08-01T00:50:49;3.53;;;2.07;;
9042;SDS011;4556;49.150;8.808;2022-08-01T00:53:18;7.93;;;2.40;;
9042;SDS011;4556;49.150;8.808;2022-08-01T00:55:46;2.50;;;2.13;;
9042;SDS011;4556;49.150;8.808;2022-08-01T00:58:14;4.83;;;2.20;;
9042;SDS011;4556;49.150;8.808;2022-08-01T01:00:41;5.43;;;2.13;;
9042;SDS011;4556;49.150;8.808;2022-08-01T01:03:08;3.03;;;2.23;;
9042;SDS011;4556;49.150;8.808;2022-08-01T01:05:38;2.50;;;2.20;;
9042;SDS011;4556;49.150;8.808;2022-08-01T01:08:19;2.37;;;2.07;;
9042;SDS011;4556;49.150;8.808;2022-08-01T01:10:54;3.50;;;2.10;;
9042;SDS011;4556;49.150;8.808;2022-08-01T01:13:26;2.67;;;2.00;;
9042;SDS011;4556;49.150;8.808;2022-08-01T01:16:01;2.30;;;2.10;;
9042;SDS011;4556;49.150;8.808;2022-08-01T01:18:33;3.03;;;2.13;;
9042;SDS011;4556;49.150;8.808;2022-08-01T01:21:06;2.67;;;2.27;;
9042;SDS011;4556;49.150;8.808;2022-08-01T01:23:44;2.40;;;2.00;;
9042;SDS011;4556;49.150;8.808;2022-08-01T01:26:23;2.70;;;2.07;;
9042;SDS011;4556;49.150;8.808;2022-08-01T01:29:03;3.13;;;2.30;;
9042;SDS011;4556;49.150;8.808;2022-08-01T01:31:33;2.93;;;2.33;;
9042;SDS011;4556;49.150;8.808;2022-08-01T01:34:06;2.80;;;2.20;;
9042;SDS011;4556;49.150;8.808;2022-08-01T01:36:35;2.37;;;2.17;;
9042;SDS011;4556;49.150;8.808;2022-08-01T01:39:03;3.23;;;2.30;;
9042;SDS011;4556;49.150;8.808;2022-08-01T01:41:32;3.87;;;2.17;;
9042;SDS011;4556;49.150;8.808;2022-08-01T01:44:03;2.27;;;2.07;;
9042;SDS011;4556;49.150;8.808;2022-08-01T01:46:31;2.47;;;2.13;;
9042;SDS011;4556;49.150;8.808;2022-08-01T01:48:59;2.90;;;2.20;;
9042;SDS011;4556;49.150;8.808;2022-08-01T01:51:27;3.33;;;2.20;;
9042;SDS011;4556;49.150;8.808;2022-08-01T01:53:56;4.70;;;2.30;;
9042;SDS011;4556;49.150;8.808;2022-08-01T01:56:24;3.20;;;2.17;;
9042;SDS011;4556;49.150;8.808;2022-08-01T01:58:54;3.77;;;2.23;;
9042;SDS011;4556;49.150;8.808;2022-08-01T02:01:26;2.47;;;2.10;;
9042;SDS011;4556;49.150;8.808;2022-08-01T02:03:57;2.97;;;2.30;;
9042;SDS011;4556;49.150;8.808;2022-08-01T02:06:27;4.17;;;2.13;;
9042;SDS011;4556;49.150;8.808;2022-08-01T02:08:56;2.93;;;2.53;;
9042;SDS011;4556;49.150;8.808;2022-08-01T02:11:25;2.73;;;2.43;;
9042;SDS011;4556;49.150;8.808;2022-08-01T02:13:53;2.73;;;2.23;;
9042;SDS011;4556;49.150;8.808;2022-08-01T02:16:27;2.57;;;2.30;;
9042;SDS011;4556;49.150;8.808;2022-08-01T02:18:58;2.97;;;2.33;;
9042;SDS011;4556;49.150;8.808;2022-08-01T02:21:26;2.83;;;2.40;;
9042;SDS011;4556;49.150;8.808;2022-08-01T02:23:57;3.00;;;2.53;;
9042;SDS011;4556;49.150;8.808;2022-08-01T02:26:28;3.10;;;2.30;;
9042;SDS011;4556;49.150;8.808;2022-08-01T02:28:57;3.53;;;2.37;;
9042;SDS011;4556;49.150;8.808;2022-08-01T02:31:30;4.17;;;2.60;;
9042;SDS011;4556;49.150;8.808;2022-08-01T02:34:02;2.67;;;2.37;;
9042;SDS011;4556;49.150;8.808;2022-08-01T02:36:35;2.57;;;2.37;;
9042;SDS011;4556;49.150;8.808;2022-08-01T02:39:06;5.57;;;2.50;;
9042;SDS011;4556;49.150;8.808;2022-08-01T02:41:36;3.20;;;2.80;;
9042;SDS011;4556;49.150;8.808;2022-08-01T02:44:07;4.73;;;2.43;;
9042;SDS011;4556;49.150;8.808;2022-08-01T02:46:38;2.60;;;2.40;;
9042;SDS011;4556;49.150;8.808;2022-08-01T02:49:08;3.07;;;2.73;;
9042;SDS011;4556;49.150;8.808;2022-08-01T02:51:37;4.07;;;2.70;;
9042;SDS011;4556;49.150;8.808;2022-08-01T02:54:08;2.97;;;2.50;;
9042;SDS011;4556;49.150;8.808;2022-08-01T02:56:36;3.57;;;2.50;;
9042;SDS011;4556;49.150;8.808;2022-08-01T02:59:06;3.73;;;2.50;;
9042;SDS011;4556;49.150;8.808;2022-08-01T03:01:40;3.13;;;2.77;;
9042;SDS011;4556;49.150;8.808;2022-08-01T03:04:10;2.80;;;2.53;;
9042;SDS011;4556;49.150;8.808;2022-08-01T03:06:39;3.53;;;2.80;;
9042;SDS011;4556;49.150;8.808;2022-08-01T03:09:07;2.97;;;2.63;;
9042;SDS011;4556;49.150;8.808;2022-08-01T03:11:36;3.07;;;2.63;;
9042;SDS011;4556;49.150;8.808;2022-08-01T03:14:06;5.00;;;2.93;;
9042;SDS011;4556;49.150;8.808;2022-08-01T03:16:35;2.93;;;2.33;;
9042;SDS011;4556;49.150;8.808;2022-08-01T03:19:06;3.40;;;2.83;;
9042;SDS011;4556;49.150;8.808;2022-08-01T03:21:34;2.80;;;2.37;;
9042;SDS011;4556;49.150;8.808;2022-08-01T03:24:03;4.67;;;2.80;;
9042;SDS011;4556;49.150;8.808;2022-08-01T03:26:34;3.77;;;2.80;;
9042;SDS011;4556;49.150;8.808;2022-08-01T03:29:04;3.27;;;2.60;;
9042;SDS011;4556;49.150;8.808;2022-08-01T03:31:32;3.13;;;2.83;;
9042;SDS011;4556;49.150;8.808;2022-08-01T03:34:02;3.77;;;2.67;;
9042;SDS011;4556;49.150;8.808;2022-08-01T03:36:32;3.20;;;2.73;;
9042;SDS011;4556;49.150;8.808;2022-08-01T03:39:02;3.37;;;2.90;;
9042;SDS011;4556;49.150;8.808;2022-08-01T03:41:33;3.40;;;2.87;;
9042;SDS011;4556;49.150;8.808;2022-08-01T03:44:05;4.03;;;2.50;;
9042;SDS011;4556;49.150;8.808;2022-08-01T03:46:40;4.10;;;2.70;;
9042;SDS011;4556;49.150;8.808;2022-08-01T03:49:11;4.07;;;2.80;;
9042;SDS011;4556;49.150;8.808;2022-08-01T03:51:45;3.20;;;2.83;;
9042;SDS011;4556;49.150;8.808;2022-08-01T03:54:15;5.77;;;2.90;;
9042;SDS011;4556;49.150;8.808;2022-08-01T03:56:47;4.90;;;3.20;;
9042;SDS011;4556;49.150;8.808;2022-08-01T03:59:16;3.57;;;3.27;;
9042;SDS011;4556;49.150;8.808;2022-08-01T04:01:44;3.00;;;2.70;;
9042;SDS011;4556;49.150;8.808;2022-08-01T04:04:12;3.43;;;3.03;;
9042;SDS011;4556;49.150;8.808;2022-08-01T04:06:40;5.07;;;2.87;;
9042;SDS011;4556;49.150;8.808;2022-08-01T04:09:11;4.13;;;2.57;;
9042;SDS011;4556;49.150;8.808;2022-08-01T04:11:38;5.73;;;3.33;;
9042;SDS011;4556;49.150;8.808;2022-08-01T04:14:05;3.37;;;2.57;;
9042;SDS011;4556;49.150;8.808;2022-08-01T04:16:33;3.57;;;3.10;;
9042;SDS011;4556;49.150;8.808;2022-08-01T04:19:00;3.20;;;2.90;;
9042;SDS011;4556;49.150;8.808;2022-08-01T04:21:28;6.73;;;3.23;;
9042;SDS011;4556;49.150;8.808;2022-08-01T04:23:58;4.47;;;3.00;;
9042;SDS011;4556;49.150;8.808;2022-08-01T04:26:31;3.37;;;2.90;;
9042;SDS011;4556;49.150;8.808;2022-08-01T04:29:05;3.33;;;2.90;;
9042;SDS011;4556;49.150;8.808;2022-08-01T04:31:34;3.40;;;3.10;;
9042;SDS011;4556;49.150;8.808;2022-08-01T04:34:04;3.87;;;2.77;;
9042;SDS011;4556;49.150;8.808;2022-08-01T04:36:33;3.40;;;3.10;;
9042;SDS011;4556;49.150;8.808;2022-08-01T04:39:03;4.23;;;3.20;;
9042;SDS011;4556;49.150;8.808;2022-08-01T04:41:33;3.70;;;3.00;;
9042;SDS011;4556;49.150;8.808;2022-08-01T04:44:02;3.30;;;3.00;;
9042;SDS011;4556;49.150;8.808;2022-08-01T04:46:32;3.60;;;3.17;;
9042;SDS011;4556;49.150;8.808;2022-08-01T04:51:33;4.67;;;3.57;;
9042;SDS011;4556;49.150;8.808;2022-08-01T04:54:01;4.20;;;3.23;;
9042;SDS011;4556;49.150;8.808;2022-08-01T04:56:29;4.53;;;3.30;;
9042;SDS011;4556;49.150;8.808;2022-08-01T04:59:00;4.10;;;3.17;;
9042;SDS011;4556;49.150;8.808;2022-08-01T05:01:47;4.03;;;3.30;;
9042;SDS011;4556;49.150;8.808;2022-08-01T05:04:15;3.20;;;2.90;;
9042;SDS011;4556;49.150;8.808;2022-08-01T05:06:42;4.13;;;2.90;;
9042;SDS011;4556;49.150;8.808;2022-08-01T05:09:09;3.33;;;2.90;;
9042;SDS011;4556;49.150;8.808;2022-08-01T05:11:36;3.70;;;2.90;;
9042;SDS011;4556;49.150;8.808;2022-08-01T05:14:05;3.23;;;2.90;;
9042;SDS011;4556;49.150;8.808;2022-08-01T05:16:32;3.47;;;2.80;;
9042;SDS011;4556;49.150;8.808;2022-08-01T05:19:00;4.30;;;3.00;;
9042;SDS011;4556;49.150;8.808;2022-08-01T05:21:27;4.47;;;2.77;;
9042;SDS011;4556;49.150;8.808;2022-08-01T05:23:54;3.90;;;2.73;;
9042;SDS011;4556;49.150;8.808;2022-08-01T05:26:23;5.57;;;3.00;;
9042;SDS011;4556;49.150;8.808;2022-08-01T05:28:50;3.90;;;2.80;;
9042;SDS011;4556;49.150;8.808;2022-08-01T05:31:19;5.37;;;2.80;;
9042;SDS011;4556;49.150;8.808;2022-08-01T05:33:46;5.60;;;2.77;;
9042;SDS011;4556;49.150;8.808;2022-08-01T05:36:13;2.60;;;2.10;;
9042;SDS011;4556;49.150;8.808;2022-08-01T05:38:40;3.10;;;2.30;;
9042;SDS011;4556;49.150;8.808;2022-08-01T05:41:07;2.70;;;2.37;;
9042;SDS011;4556;49.150;8.808;2022-08-01T05:43:35;3.97;;;2.20;;
9042;SDS011;4556;49.150;8.808;2022-08-01T05:46:02;2.40;;;2.20;;
9042;SDS011;4556;49.150;8.808;2022-08-01T05:48:31;2.60;;;2.27;;
9042;SDS011;4556;49.150;8.808;2022-08-01T05:50:58;2.97;;;2.23;;
9042;SDS011;4556;49.150;8.808;2022-08-01T05:53:26;5.43;;;2.10;;
9042;SDS011;4556;49.150;8.808;2022-08-01T05:55:53;5.77;;;2.30;;
9042;SDS011;4556;49.150;8.808;2022-08-01T05:58:20;3.00;;;2.10;;
9042;SDS011;4556;49.150;8.808;2022-08-01T06:00:48;3.37;;;2.40;;
9042;SDS011;4556;49.150;8.808;2022-08-01T06:03:15;5.00;;;2.20;;
9042;SDS011;4556;49.150;8.808;2022-08-01T06:05:46;2.33;;;2.10;;
9042;SDS011;4556;49.150;8.808;2022-08-01T06:08:16;2.50;;;2.17;;
9042;SDS011;4556;49.150;8.808;2022-08-01T06:10:43;3.17;;;2.30;;
9042;SDS011;4556;49.150;8.808;2022-08-01T06:13:10;2.47;;;2.10;;
9042;SDS011;4556;49.150;8.808;2022-08-01T06:15:38;2.93;;;2.03;;
9042;SDS011;4556;49.150;8.808;2022-08-01T06:18:05;2.40;;;1.90;;
9042;SDS011;4556;49.150;8.808;2022-08-01T06:20:33;2.30;;;1.80;;
9042;SDS011;4556;49.150;8.808;2022-08-01T06:23:01;2.70;;;1.90;;
9042;SDS011;4556;49.150;8.808;2022-08-01T06:25:28;3.27;;;2.00;;
9042;SDS011;4556;49.150;8.808;2022-08-01T06:27:55;1.97;;;1.80;;
9042;SDS011;4556;49.150;8.808;2022-08-01T06:30:22;3.17;;;2.10;;
9042;SDS011;4556;49.150;8.808;2022-08-01T06:32:49;2.17;;;1.67;;
9042;SDS011;4556;49.150;8.808;2022-08-01T06:35:17;4.47;;;1.70;;
9042;SDS011;4556;49.150;8.808;2022-08-01T06:37:44;2.50;;;2.13;;
9042;SDS011;4556;49.150;8.808;2022-08-01T06:40:13;3.63;;;1.60;;
9042;SDS011;4556;49.150;8.808;2022-08-01T06:42:41;2.10;;;1.90;;
9042;SDS011;4556;49.150;8.808;2022-08-01T06:45:09;2.63;;;1.87;;
9042;SDS011;4556;49.150;8.808;2022-08-01T06:47:38;3.53;;;1.50;;
9042;SDS011;4556;49.150;8.808;2022-08-01T06:50:06;1.60;;;1.50;;
9042;SDS011;4556;49.150;8.808;2022-08-01T06:52:34;2.00;;;1.60;;
9042;SDS011;4556;49.150;8.808;2022-08-01T06:55:02;2.33;;;1.40;;
9042;SDS011;4556;49.150;8.808;2022-08-01T06:57:32;1.67;;;1.30;;
9042;SDS011;4556;49.150;8.808;2022-08-01T07:00:00;2.37;;;1.50;;
9042;SDS011;4556;49.150;8.808;2022-08-01T07:02:30;3.13;;;1.60;;
9042;SDS011;4556;49.150;8.808;2022-08-01T07:04:57;2.53;;;1.30;;
9042;SDS011;4556;49.150;8.808;2022-08-01T07:07:25;1.50;;;1.40;;
9042;SDS011;4556;49.150;8.808;2022-08-01T07:09:53;2.80;;;1.20;;
9042;SDS011;4556;49.150;8.808;2022-08-01T07:12:29;3.20;;;1.63;;
9042;SDS011;4556;49.150;8.808;2022-08-01T07:15:05;2.00;;;1.33;;
9042;SDS011;4556;49.150;8.808;2022-08-01T07:17:35;2.40;;;1.10;;
9042;SDS011;4556;49.150;8.808;2022-08-01T07:20:05;2.20;;;1.20;;
9042;SDS011;4556;49.150;8.808;2022-08-01T07:22:33;1.67;;;0.80;;
9042;SDS011;4556;49.150;8.808;2022-08-01T07:25:00;3.10;;;1.13;;
9042;SDS011;4556;49.150;8.808;2022-08-01T07:27:27;2.90;;;1.10;;
9042;SDS011;4556;49.150;8.808;2022-08-01T07:29:54;1.17;;;1.07;;
9042;SDS011;4556;49.150;8.808;2022-08-01T07:32:23;2.77;;;1.10;;
9042;SDS011;4556;49.150;8.808;2022-08-01T07:34:50;3.10;;;1.20;;
9042;SDS011;4556;49.150;8.808;2022-08-01T07:37:18;2.23;;;1.00;;
9042;SDS011;4556;49.150;8.808;2022-08-01T07:39:45;0.70;;;0.70;;
9042;SDS011;4556;49.150;8.808;2022-08-01T07:42:12;0.80;;;0.80;;
9042;SDS011;4556;49.150;8.808;2022-08-01T07:44:39;1.03;;;0.90;;
9042;SDS011;4556;49.150;8.808;2022-08-01T07:47:06;1.50;;;1.20;;
9042;SDS011;4556;49.150;8.808;2022-08-01T07:49:35;2.47;;;0.80;;
9042;SDS011;4556;49.150;8.808;2022-08-01T07:52:02;1.40;;;0.93;;
9042;SDS011;4556;49.150;8.808;2022-08-01T07:54:30;1.55;;;1.00;;
9042;SDS011;4556;49.150;8.808;2022-08-01T07:56:57;4.72;;;1.00;;
9042;SDS011;4556;49.150;8.808;2022-08-01T07:59:27;1.00;;;0.90;;
9042;SDS011;4556;49.150;8.808;2022-08-01T08:01:54;1.90;;;1.08;;
9042;SDS011;4556;49.150;8.808;2022-08-01T08:04:21;1.70;;;0.93;;
9042;SDS011;4556;49.150;8.808;2022-08-01T08:06:49;1.25;;;0.90;;
9042;SDS011;4556;49.150;8.808;2022-08-01T08:09:19;1.55;;;1.00;;
9042;SDS011;4556;49.150;8.808;2022-08-01T08:11:46;1.13;;;0.98;;
9042;SDS011;4556;49.150;8.808;2022-08-01T08:14:14;1.27;;;0.90;;
9042;SDS011;4556;49.150;8.808;2022-08-01T08:16:42;1.27;;;1.00;;
9042;SDS011;4556;49.150;8.808;2022-08-01T08:19:09;2.35;;;0.95;;
9042;SDS011;4556;49.150;8.808;2022-08-01T08:21:36;2.00;;;1.05;;
9042;SDS011;4556;49.150;8.808;2022-08-01T08:24:06;1.75;;;0.90;;
9042;SDS011;4556;49.150;8.808;2022-08-01T08:26:46;1.00;;;0.70;;
9042;SDS011;4556;49.150;8.808;2022-08-01T08:29:13;2.30;;;1.02;;
9042;SDS011;4556;49.150;8.808;2022-08-01T08:31:41;1.70;;;0.75;;
9042;SDS011;4556;49.150;8.808;2022-08-01T08:34:08;1.17;;;0.80;;
9042;SDS011;4556;49.150;8.808;2022-08-01T08:36:36;1.90;;;1.10;;
9042;SDS011;4556;49.150;8.808;2022-08-01T08:39:03;2.45;;;0.77;;
9042;SDS011;4556;49.150;8.808;2022-08-01T08:41:33;0.60;;;0.50;;
9042;SDS011;4556;49.150;8.808;2022-08-01T08:44:03;6.22;;;0.80;;
9042;SDS011;4556;49.150;8.808;2022-08-01T08:46:32;1.75;;;0.60;;
9042;SDS011;4556;49.150;8.808;2022-08-01T08:49:00;2.72;;;0.80;;
9042;SDS011;4556;49.150;8.808;2022-08-01T08:51:30;1.23;;;0.70;;
9042;SDS011;4556;49.150;8.808;2022-08-01T08:53:58;1.83;;;0.80;;
9042;SDS011;4556;49.150;8.808;2022-08-01T08:56:30;0.93;;;0.60;;
9042;SDS011;4556;49.150;8.808;2022-08-01T08:58:59;1.20;;;0.82;;
9042;SDS011;4556;49.150;8.808;2022-08-01T09:01:27;2.15;;;0.60;;
9042;SDS011;4556;49.150;8.808;2022-08-01T09:03:54;1.00;;;0.75;;
9042;SDS011;4556;49.150;8.808;2022-08-01T09:06:21;1.55;;;0.70;;
9042;SDS011;4556;49.150;8.808;2022-08-01T09:08:50;1.48;;;0.88;;
9042;SDS011;4556;49.150;8.808;2022-08-01T09:11:17;0.73;;;0.70;;
9042;SDS011;4556;49.150;8.808;2022-08-01T09:13:49;1.23;;;0.70;;
9042;SDS011;4556;49.150;8.808;2022-08-01T09:16:29;1.33;;;0.80;;
9042;SDS011;4556;49.150;8.808;2022-08-01T09:19:06;1.88;;;0.82;;
9042;SDS011;4556;49.150;8.808;2022-08-01T09:21:34;2.05;;;0.88;;
9042;SDS011;4556;49.150;8.808;2022-08-01T09:24:02;2.92;;;1.00;;
9042;SDS011;4556;49.150;8.808;2022-08-01T09:26:31;1.92;;;0.70;;
9042;SDS011;4556;49.150;8.808;2022-08-01T09:29:03;1.00;;;0.77;;
9042;SDS011;4556;49.150;8.808;2022-08-01T09:31:38;1.08;;;0.80;;
9042;SDS011;4556;49.150;8.808;2022-08-01T09:34:07;3.08;;;1.00;;
9042;SDS011;4556;49.150;8.808;2022-08-01T09:36:45;2.83;;;0.90;;
9042;SDS011;4556;49.150;8.808;2022-08-01T09:39:16;1.45;;;1.00;;
9042;SDS011;4556;49.150;8.808;2022-08-01T09:41:44;2.15;;;1.10;;
9042;SDS011;4556;49.150;8.808;2022-08-01T09:44:14;2.15;;;1.10;;
9042;SDS011;4556;49.150;8.808;2022-08-01T09:46:50;1.15;;;0.85;;
9042;SDS011;4556;49.150;8.808;2022-08-01T09:49:29;2.20;;;1.02;;
9042;SDS011;4556;49.150;8.808;2022-08-01T09:51:57;0.90;;;0.85;;
9042;SDS011;4556;49.150;8.808;2022-08-01T09:54:29;1.17;;;1.00;;
9042;SDS011;4556;49.150;8.808;2022-08-01T09:57:07;0.90;;;0.90;;
9042;SDS011;4556;49.150;8.808;2022-08-01T09:59:41;1.95;;;0.95;;
9042;SDS011;4556;49.150;8.808;2022-08-01T10:02:09;3.00;;;0.80;;
9042;SDS011;4556;49.150;8.808;2022-08-01T10:04:45;1.23;;;0.70;;
9042;SDS011;4556;49.150;8.808;2022-08-01T10:07:13;1.50;;;0.88;;
9042;SDS011;4556;49.150;8.808;2022-08-01T10:09:42;1.50;;;0.80;;
9042;SDS011;4556;49.150;8.808;2022-08-01T10:12:12;2.28;;;0.95;;
9042;SDS011;4556;49.150;8.808;2022-08-01T10:14:43;0.80;;;0.80;;
9042;SDS011;4556;49.150;8.808;2022-08-01T10:17:12;0.90;;;0.80;;
9042;SDS011;4556;49.150;8.808;2022-08-01T10:19:41;1.17;;;0.75;;
9042;SDS011;4556;49.150;8.808;2022-08-01T10:22:11;1.25;;;0.93;;
9042;SDS011;4556;49.150;8.808;2022-08-01T10:24:42;0.80;;;0.70;;
9042;SDS011;4556;49.150;8.808;2022-08-01T10:27:11;1.48;;;0.80;;
9042;SDS011;4556;49.150;8.808;2022-08-01T10:29:43;2.33;;;1.08;;
9042;SDS011;4556;49.150;8.808;2022-08-01T10:32:13;2.03;;;0.82;;
9042;SDS011;4556;49.150;8.808;2022-08-01T10:34:42;1.00;;;0.70;;
9042;SDS011;4556;49.150;8.808;2022-08-01T10:37:10;1.52;;;0.95;;
9042;SDS011;4556;49.150;8.808;2022-08-01T10:39:39;1.55;;;0.85;;
9042;SDS011;4556;49.150;8.808;2022-08-01T10:42:06;0.90;;;0.80;;
9042;SDS011;4556;49.150;8.808;2022-08-01T10:44:37;1.90;;;0.70;;
9042;SDS011;4556;49.150;8.808;2022-08-01T10:47:09;2.42;;;0.82;;
9042;SDS011;4556;49.150;8.808;2022-08-01T10:49:39;0.73;;;0.73;;
9042;SDS011;4556;49.150;8.808;2022-08-01T10:52:13;1.55;;;1.10;;
9042;SDS011;4556;49.150;8.808;2022-08-01T10:54:41;2.85;;;0.70;;
9042;SDS011;4556;49.150;8.808;2022-08-01T10:57:09;0.93;;;0.80;;
9042;SDS011;4556;49.150;8.808;2022-08-01T10:59:47;1.27;;;0.82;;
9042;SDS011;4556;49.150;8.808;2022-08-01T11:02:26;1.60;;;0.60;;
9042;SDS011;4556;49.150;8.808;2022-08-01T11:04:55;1.67;;;0.80;;
9042;SDS011;4556;49.150;8.808;2022-08-01T11:07:35;0.80;;;0.80;;
9042;SDS011;4556;49.150;8.808;2022-08-01T11:10:16;0.80;;;0.60;;
9042;SDS011;4556;49.150;8.808;2022-08-01T11:12:50;1.77;;;0.80;;
9042;SDS011;4556;49.150;8.808;2022-08-01T11:17:56;1.73;;;1.00;;
9042;SDS011;4556;49.150;8.808;2022-08-01T11:20:24;3.20;;;0.90;;
9042;SDS011;4556;49.150;8.808;2022-08-01T11:26:08;3.47;;;1.23;;
9042;SDS011;4556;49.150;8.808;2022-08-01T11:28:39;1.10;;;1.00;;
9042;SDS011;4556;49.150;8.808;2022-08-01T11:33:56;2.90;;;0.90;;
9042;SDS011;4556;49.150;8.808;2022-08-01T11:36:24;0.93;;;0.70;;
9042;SDS011;4556;49.150;8.808;2022-08-01T11:39:11;1.75;;;1.15;;
9042;SDS011;4556;49.150;8.808;2022-08-01T11:41:45;1.87;;;1.00;;
9042;SDS011;4556;49.150;8.808;2022-08-01T11:44:14;3.25;;;1.10;;
9042;SDS011;4556;49.150;8.808;2022-08-01T11:46:47;0.77;;;0.73;;
9042;SDS011;4556;49.150;8.808;2022-08-01T11:49:43;1.80;;;0.90;;
9042;SDS011;4556;49.150;8.808;2022-08-01T11:52:23;2.03;;;1.00;;
9042;SDS011;4556;49.150;8.808;2022-08-01T11:54:55;1.48;;;1.10;;
9042;SDS011;4556;49.150;8.808;2022-08-01T11:57:25;1.52;;;1.00;;
9042;SDS011;4556;49.150;8.808;2022-08-01T11:59:56;4.03;;;1.13;;
9042;SDS011;4556;49.150;8.808;2022-08-01T12:02:25;1.38;;;0.95;;
9042;SDS011;4556;49.150;8.808;2022-08-01T12:04:55;4.32;;;1.02;;
9042;SDS011;4556;49.150;8.808;2022-08-01T12:07:27;1.38;;;1.00;;
9042;SDS011;4556;49.150;8.808;2022-08-01T12:09:57;1.80;;;1.15;;
9042;SDS011;4556;49.150;8.808;2022-08-01T12:12:27;1.02;;;0.90;;
9042;SDS011;4556;49.150;8.808;2022-08-01T12:14:57;2.35;;;1.15;;
9042;SDS011;4556;49.150;8.808;2022-08-01T12:17:29;1.08;;;0.95;;
9042;SDS011;4556;49.150;8.808;2022-08-01T12:19:59;1.02;;;0.98;;
9042;SDS011;4556;49.150;8.808;2022-08-01T12:22:26;1.15;;;0.93;;
9042;SDS011;4556;49.150;8.808;2022-08-01T12:24:53;1.30;;;1.00;;
9042;SDS011;4556;49.150;8.808;2022-08-01T12:27:25;1.08;;;0.98;;
9042;SDS011;4556;49.150;8.808;2022-08-01T12:29:54;2.92;;;1.00;;
9042;SDS011;4556;49.150;8.808;2022-08-01T12:32:23;3.58;;;0.95;;
9042;SDS011;4556;49.150;8.808;2022-08-01T12:34:53;1.00;;;0.73;;
9042;SDS011;4556;49.150;8.808;2022-08-01T12:37:23;1.00;;;0.90;;
9042;SDS011;4556;49.150;8.808;2022-08-01T12:39:50;1.27;;;1.00;;
9042;SDS011;4556;49.150;8.808;2022-08-01T12:42:17;1.90;;;0.90;;
9042;SDS011;4556;49.150;8.808;2022-08-01T12:44:47;1.00;;;0.90;;
9042;SDS011;4556;49.150;8.808;2022-08-01T12:47:16;1.75;;;0.88;;
9042;SDS011;4556;49.150;8.808;2022-08-01T12:49:45;2.10;;;0.73;;
9042;SDS011;4556;49.150;8.808;2022-08-01T12:52:13;1.45;;;0.90;;
9042;SDS011;4556;49.150;8.808;2022-08-01T12:55:01;1.48;;;0.93;;
9042;SDS011;4556;49.150;8.808;2022-08-01T12:57:34;2.15;;;0.75;;
9042;SDS011;4556;49.150;8.808;2022-08-01T13:00:07;1.83;;;1.13;;
9042;SDS011;4556;49.150;8.808;2022-08-01T13:02:37;1.05;;;0.90;;
9042;SDS011;4556;49.150;8.808;2022-08-01T13:05:05;1.23;;;1.10;;
9042;SDS011;4556;49.150;8.808;2022-08-01T13:07:37;1.30;;;0.90;;
9042;SDS011;4556;49.150;8.808;2022-08-01T13:10:14;1.10;;;0.95;;
9042;SDS011;4556;49.150;8.808;2022-08-01T13:12:51;1.60;;;0.75;;
9042;SDS011;4556;49.150;8.808;2022-08-01T13:15:23;1.20;;;0.80;;
9042;SDS011;4556;49.150;8.808;2022-08-01T13:17:53;1.77;;;1.00;;
9042;SDS011;4556;49.150;8.808;2022-08-01T13:20:21;1.08;;;0.70;;
9042;SDS011;4556;49.150;8.808;2022-08-01T13:22:53;1.80;;;0.80;;
9042;SDS011;4556;49.150;8.808;2022-08-01T13:25:22;2.03;;;0.82;;
9042;SDS011;4556;49.150;8.808;2022-08-01T13:27:49;2.63;;;0.90;;
9042;SDS011;4556;49.150;8.808;2022-08-01T13:30:57;1.80;;;0.90;;
9042;SDS011;4556;49.150;8.808;2022-08-01T13:33:26;1.00;;;0.82;;
9042;SDS011;4556;49.150;8.808;2022-08-01T13:35:55;1.25;;;1.00;;
9042;SDS011;4556;49.150;8.808;2022-08-01T13:38:23;0.98;;;0.85;;
9042;SDS011;4556;49.150;8.808;2022-08-01T13:41:05;1.08;;;0.95;;
9042;SDS011;4556;49.150;8.808;2022-08-01T13:43:32;0.75;;;0.70;;
9042;SDS011;4556;49.150;8.808;2022-08-01T13:46:00;1.60;;;0.77;;
9042;SDS011;4556;49.150;8.808;2022-08-01T13:48:29;1.45;;;0.75;;
9042;SDS011;4556;49.150;8.808;2022-08-01T13:50:58;2.72;;;1.08;;
9042;SDS011;4556;49.150;8.808;2022-08-01T13:53:25;2.42;;;0.82;;
9042;SDS011;4556;49.150;8.808;2022-08-01T13:55:55;0.90;;;0.80;;
9042;SDS011;4556;49.150;8.808;2022-08-01T13:58:24;0.70;;;0.70;;
9042;SDS011;4556;49.150;8.808;2022-08-01T14:00:53;1.95;;;0.95;;
9042;SDS011;4556;49.150;8.808;2022-08-01T14:03:20;0.70;;;0.70;;
9042;SDS011;4556;49.150;8.808;2022-08-01T14:05:47;1.90;;;1.10;;
9042;SDS011;4556;49.150;8.808;2022-08-01T14:08:15;1.48;;;0.80;;
9042;SDS011;4556;49.150;8.808;2022-08-01T14:10:42;1.00;;;0.80;;
9042;SDS011;4556;49.150;8.808;2022-08-01T14:13:12;2.25;;;0.75;;
9042;SDS011;4556;49.150;8.808;2022-08-01T14:15:41;2.00;;;0.90;;
9042;SDS011;4556;49.150;8.808;2022-08-01T14:18:08;1.90;;;0.80;;
9042;SDS011;4556;49.150;8.808;2022-08-01T14:20:36;2.00;;;0.80;;
9042;SDS011;4556;49.150;8.808;2022-08-01T14:23:04;1.55;;;0.88;;
9042;SDS011;4556;49.150;8.808;2022-08-01T14:25:31;1.00;;;0.70;;
9042;SDS011;4556;49.150;8.808;2022-08-01T14:27:59;1.55;;;0.90;;
9042;SDS011;4556;49.150;8.808;2022-08-01T14:30:26;4.43;;;0.82;;
9042;SDS011;4556;49.150;8.808;2022-08-01T14:32:55;0.70;;;0.70;;
9042;SDS011;4556;49.150;8.808;2022-08-01T14:35:22;2.05;;;0.80;;
9042;SDS011;4556;49.150;8.808;2022-08-01T14:37:49;2.70;;;0.80;;
9042;SDS011;4556;49.150;8.808;2022-08-01T14:40:17;2.88;;;0.80;;
9042;SDS011;4556;49.150;8.808;2022-08-01T14:42:44;0.90;;;0.77;;
9042;SDS011;4556;49.150;8.808;2022-08-01T14:45:11;1.40;;;0.90;;
9042;SDS011;4556;49.150;8.808;2022-08-01T14:47:40;1.33;;;0.75;;
9042;SDS011;4556;49.150;8.808;2022-08-01T14:50:11;2.45;;;0.90;;
9042;SDS011;4556;49.150;8.808;2022-08-01T14:52:40;1.55;;;0.77;;
9042;SDS011;4556;49.150;8.808;2022-08-01T14:55:08;4.20;;;0.90;;
9042;SDS011;4556;49.150;8.808;2022-08-01T14:57:37;0.77;;;0.60;;
9042;SDS011;4556;49.150;8.808;2022-08-01T15:00:06;2.47;;;0.90;;
9042;SDS011;4556;49.150;8.808;2022-08-01T15:02:36;0.85;;;0.70;;
9042;SDS011;4556;49.150;8.808;2022-08-01T15:05:03;2.78;;;0.70;;
9042;SDS011;4556;49.150;8.808;2022-08-01T15:07:34;0.88;;;0.80;;
9042;SDS011;4556;49.150;8.808;2022-08-01T15:10:02;1.38;;;0.88;;
9042;SDS011;4556;49.150;8.808;2022-08-01T15:12:29;1.65;;;0.70;;
9042;SDS011;4556;49.150;8.808;2022-08-01T15:14:57;0.57;;;0.57;;
9042;SDS011;4556;49.150;8.808;2022-08-01T15:17:24;1.55;;;0.68;;
9042;SDS011;4556;49.150;8.808;2022-08-01T15:19:54;2.80;;;0.80;;
9042;SDS011;4556;49.150;8.808;2022-08-01T15:22:23;0.85;;;0.60;;
9042;SDS011;4556;49.150;8.808;2022-08-01T15:24:53;1.95;;;0.80;;
9042;SDS011;4556;49.150;8.808;2022-08-01T15:27:21;0.57;;;0.57;;
9042;SDS011;4556;49.150;8.808;2022-08-01T15:29:49;0.60;;;0.50;;
9042;SDS011;4556;49.150;8.808;2022-08-01T15:32:16;1.95;;;0.70;;
9042;SDS011;4556;49.150;8.808;2022-08-01T15:34:44;0.98;;;0.70;;
9042;SDS011;4556;49.150;8.808;2022-08-01T15:37:11;1.30;;;0.68;;
9042;SDS011;4556;49.150;8.808;2022-08-01T15:39:39;2.05;;;0.70;;
9042;SDS011;4556;49.150;8.808;2022-08-01T15:42:09;0.80;;;0.60;;